createdAt,value
2018-02-07T00:00:22.107Z,101105.16
2018-02-07T00:02:57.137Z,101107.16
2018-02-07T00:05:32.011Z,101110.45
2018-02-07T00:08:07.018Z,101112.59
2018-02-07T00:10:42.081Z,101107.46
2018-02-07T00:13:17.193Z,101110.30
2018-02-07T00:15:52.262Z,101110.05
2018-02-07T00:18:26.990Z,101108.98
2018-02-07T00:21:02.835Z,101102.06
2018-02-07T00:23:38.046Z,101103.05
2018-02-07T00:26:13.046Z,101104.91
2018-02-07T00:28:48.457Z,101104.98
2018-02-07T00:31:23.318Z,101113.80
2018-02-07T00:33:58.429Z,101105.44
2018-02-07T00:36:33.235Z,101100.26
2018-02-07T00:39:08.084Z,101107.38
2018-02-07T00:41:43.177Z,101099.98
2018-02-07T00:44:18.120Z,101097.53
2018-02-07T00:46:53.170Z,101097.25
2018-02-07T00:49:27.550Z,101093.45
2018-02-07T00:52:02.533Z,101101.88
2018-02-07T00:54:38.081Z,101104.55
2018-02-07T00:57:12.584Z,101095.23
2018-02-07T00:59:47.514Z,101106.38
2018-02-07T01:02:22.582Z,101101.94
2018-02-07T01:04:57.444Z,101110.78
2018-02-07T01:07:32.294Z,101105.72
2018-02-07T01:10:07.652Z,101104.34
2018-02-07T01:12:43.170Z,101105.42
2018-02-07T01:15:18.305Z,101112.17
2018-02-07T01:17:53.322Z,101117.61
2018-02-07T01:20:28.237Z,101115.22
2018-02-07T01:23:03.457Z,101112.34
2018-02-07T01:25:38.308Z,101119.51
2018-02-07T01:28:13.201Z,101120.36
2018-02-07T01:30:48.461Z,101115.45
2018-02-07T01:33:23.354Z,101121.03
2018-02-07T01:35:58.337Z,101118.23
2018-02-07T01:38:33.336Z,101123.91
2018-02-07T01:41:08.285Z,101123.89
2018-02-07T01:43:43.254Z,101123.03
2018-02-07T01:46:18.391Z,101122.71
2018-02-07T01:48:53.626Z,101125.16
2018-02-07T01:51:28.405Z,101121.01
2018-02-07T01:54:03.405Z,101119.41
2018-02-07T01:56:38.593Z,101116.48
2018-02-07T01:59:13.577Z,101111.70
2018-02-07T02:01:48.618Z,101112.72
2018-02-07T02:25:23.161Z,101103.19
2018-02-07T02:27:58.422Z,101104.02
2018-02-07T02:30:33.569Z,101114.61
2018-02-07T02:33:08.410Z,101119.88
2018-02-07T02:49:06.514Z,101114.91
2018-02-07T02:51:41.457Z,101114.09
2018-02-07T02:54:16.514Z,101115.86
2018-02-07T02:56:51.517Z,101117.61
2018-02-07T02:59:26.674Z,101125.15
2018-02-07T03:02:02.003Z,101131.47
2018-02-07T03:04:37.469Z,101134.67
2018-02-07T03:07:12.733Z,101128.13
2018-02-07T03:09:47.963Z,101111.63
2018-02-07T03:12:22.672Z,101130.82
2018-02-07T03:14:57.408Z,101129.08
2018-02-07T03:17:32.594Z,101130.93
2018-02-07T03:20:07.728Z,101126.26
2018-02-07T03:22:42.775Z,101134.31
2018-02-07T03:25:17.906Z,101136.16
2018-02-07T03:27:53.030Z,101140.52
2018-02-07T03:30:28.612Z,101141.33
2018-02-07T03:33:03.882Z,101134.59
2018-02-07T03:35:39.142Z,101134.57
2018-02-07T03:38:14.509Z,101135.44
2018-02-07T03:40:49.965Z,101139.25
2018-02-07T03:43:25.558Z,101140.42
2018-02-07T03:46:00.261Z,101143.48
2018-02-07T03:48:35.582Z,101144.01
2018-02-07T03:51:10.722Z,101151.13
2018-02-07T03:53:47.094Z,101143.73
2018-02-07T03:56:21.927Z,101153.05
2018-02-07T03:58:56.629Z,101152.98
2018-02-07T04:01:31.617Z,101148.63
2018-02-07T04:04:06.702Z,101151.38
2018-02-07T04:06:41.958Z,101154.06
2018-02-07T04:09:16.758Z,101153.13
2018-02-07T04:11:51.950Z,101150.42
2018-02-07T04:14:27.103Z,101150.80
2018-02-07T04:17:02.801Z,101164.86
2018-02-07T04:19:37.738Z,101152.16
2018-02-07T04:22:12.789Z,101156.14
2018-02-07T04:24:47.748Z,101149.19
2018-02-07T04:27:22.624Z,101153.16
2018-02-07T04:29:58.084Z,101152.33
2018-02-07T04:32:33.016Z,101163.38
2018-02-07T04:35:07.885Z,101164.86
2018-02-07T04:37:42.578Z,101158.51
2018-02-07T04:40:17.783Z,101151.22
2018-02-07T04:42:53.076Z,101153.24
2018-02-07T04:45:28.208Z,101154.07
2018-02-07T04:48:03.330Z,101151.34
2018-02-07T04:50:37.976Z,101158.00
2018-02-07T04:53:12.789Z,101155.41
2018-02-07T04:55:47.736Z,101154.16
2018-02-07T04:58:22.793Z,101153.40
2018-02-07T05:00:58.314Z,101161.58
2018-02-07T05:03:33.243Z,101128.33
2018-02-07T05:06:08.895Z,101165.47
2018-02-07T05:08:43.969Z,101159.42
2018-02-07T05:11:19.302Z,101160.31
2018-02-07T05:13:53.990Z,101163.42
2018-02-07T05:16:28.955Z,101172.16
2018-02-07T05:19:04.137Z,101176.52
2018-02-07T05:21:39.012Z,101169.17
2018-02-07T05:24:13.994Z,101175.31
2018-02-07T05:26:48.995Z,101181.80
2018-02-07T05:29:24.270Z,101182.59
2018-02-07T05:31:59.986Z,101186.56
2018-02-07T05:34:34.919Z,101189.70
2018-02-07T05:37:09.993Z,101185.42
2018-02-07T05:39:45.138Z,101180.64
2018-02-07T05:42:20.108Z,101189.13
2018-02-07T05:44:54.825Z,101188.31
2018-02-07T05:47:29.935Z,101196.66
2018-02-07T05:50:05.090Z,101195.22
2018-02-07T05:52:40.299Z,101190.80
2018-02-07T05:55:15.210Z,101186.39
2018-02-07T05:57:50.530Z,101185.42
2018-02-07T06:00:25.892Z,101180.16
2018-02-07T06:03:01.149Z,101192.49
2018-02-07T06:05:36.106Z,101186.37
2018-02-07T06:08:10.570Z,101191.16
2018-02-07T06:10:47.055Z,101177.11
2018-02-07T06:13:22.099Z,101185.36
2018-02-07T06:15:57.105Z,101184.90
2018-02-07T06:18:32.448Z,101191.02
2018-02-07T06:21:07.091Z,101194.06
2018-02-07T06:23:41.490Z,101190.58
2018-02-07T06:26:16.458Z,101205.09
2018-02-07T06:28:51.478Z,101205.18
2018-02-07T06:31:26.989Z,101204.25
2018-02-07T06:34:02.466Z,101201.98
2018-02-07T06:36:37.453Z,101200.74
2018-02-07T06:39:12.229Z,101214.75
2018-02-07T06:41:47.522Z,101218.28
2018-02-07T06:44:22.212Z,101229.28
2018-02-07T06:46:57.204Z,101234.16
2018-02-07T06:49:32.265Z,101234.98
2018-02-07T06:52:07.358Z,101233.66
2018-02-07T06:54:42.549Z,101233.66
2018-02-07T06:57:18.217Z,101232.00
2018-02-07T06:59:53.326Z,101238.59
2018-02-07T07:02:28.242Z,101233.32
2018-02-07T07:05:03.524Z,101240.34
2018-02-07T07:07:38.316Z,101246.84
2018-02-07T07:10:13.218Z,101243.29
2018-02-07T07:12:48.702Z,101246.35
2018-02-07T07:15:23.306Z,101250.23
2018-02-07T07:17:58.605Z,101248.45
2018-02-07T07:20:33.261Z,101242.31
2018-02-07T07:23:08.066Z,101242.38
2018-02-07T07:25:43.209Z,101256.38
2018-02-07T07:28:18.127Z,101253.81
2018-02-07T07:30:52.934Z,101250.37
2018-02-07T07:33:27.611Z,101257.95
2018-02-07T07:36:02.697Z,101259.34
2018-02-07T07:38:37.689Z,101262.89
2018-02-07T07:41:12.673Z,101265.60
2018-02-07T07:43:47.751Z,101275.71
2018-02-07T07:46:22.482Z,101269.98
2018-02-07T07:48:57.609Z,101275.22
2018-02-07T07:51:32.609Z,101269.50
2018-02-07T07:54:07.810Z,101286.09
2018-02-07T07:56:43.349Z,101290.29
2018-02-07T07:59:18.361Z,101281.23
2018-02-07T08:01:53.703Z,101283.16
2018-02-07T08:04:29.046Z,101287.73
2018-02-07T08:07:04.291Z,101281.73
2018-02-07T08:09:39.397Z,101278.78
2018-02-07T08:12:14.564Z,101276.22
2018-02-07T08:14:49.695Z,101272.73
2018-02-07T08:17:24.505Z,101277.73
2018-02-07T08:19:59.694Z,101274.88
2018-02-07T08:22:34.435Z,101285.63
2018-02-07T08:25:09.545Z,101277.52
2018-02-07T08:27:44.477Z,101276.81
2018-02-07T08:30:19.629Z,101276.98
2018-02-07T08:32:54.774Z,101289.12
2018-02-07T08:35:29.682Z,101292.05
2018-02-07T08:38:04.705Z,101291.31
2018-02-07T08:40:39.494Z,101290.61
2018-02-07T08:43:14.695Z,101296.49
2018-02-07T08:45:49.701Z,101304.95
2018-02-07T08:48:24.835Z,101302.55
2018-02-07T08:50:59.990Z,101306.18
2018-02-07T08:53:35.115Z,101306.17
2018-02-07T08:56:10.409Z,101308.67
2018-02-07T08:58:45.568Z,101309.47
2018-02-07T09:01:20.597Z,101314.28
2018-02-07T09:03:55.602Z,101311.22
2018-02-07T09:06:30.117Z,101306.70
2018-02-07T09:09:04.958Z,101315.44
2018-02-07T09:11:40.094Z,101318.85
2018-02-07T09:14:15.597Z,101320.08
2018-02-07T09:16:50.842Z,101327.66
2018-02-07T09:19:25.601Z,101324.24
2018-02-07T09:22:01.153Z,101318.07
2018-02-07T09:24:36.058Z,101317.53
2018-02-07T09:27:11.089Z,101321.23
2018-02-07T09:29:46.135Z,101320.38
2018-02-07T09:32:21.578Z,101317.22
2018-02-07T09:34:56.982Z,101311.49
2018-02-07T09:37:31.853Z,101325.60
2018-02-07T09:40:06.818Z,101325.15
2018-02-07T09:42:41.441Z,101313.89
2018-02-07T09:45:16.849Z,101313.50
2018-02-07T09:47:51.858Z,101318.98
2018-02-07T09:50:26.706Z,101316.89
2018-02-07T09:53:01.867Z,101322.13
2018-02-07T09:55:36.879Z,101329.18
2018-02-07T09:58:11.978Z,101322.22
2018-02-07T10:00:48.006Z,101331.37
2018-02-07T10:03:23.031Z,101325.59
2018-02-07T10:05:58.002Z,101328.72
2018-02-07T10:08:32.789Z,101327.24
2018-02-07T10:11:07.635Z,101328.57
2018-02-07T10:13:42.674Z,101332.70
2018-02-07T10:16:17.198Z,101330.39
2018-02-07T10:18:52.818Z,101322.69
2018-02-07T10:21:27.846Z,101331.25
2018-02-07T10:24:03.039Z,101329.20
2018-02-07T10:26:38.058Z,101336.13
2018-02-07T10:29:12.879Z,101336.18
2018-02-07T10:31:48.230Z,101335.13
2018-02-07T10:34:23.096Z,101336.56
2018-02-07T10:36:58.007Z,101326.25
2018-02-07T10:39:33.330Z,101324.30
2018-02-07T10:42:08.803Z,101325.14
2018-02-07T10:44:43.823Z,101320.30
2018-02-07T10:47:19.059Z,101319.13
2018-02-07T10:49:54.115Z,101321.95
2018-02-07T10:52:29.331Z,101328.33
2018-02-07T10:55:04.380Z,101330.84
2018-02-07T10:57:39.205Z,101332.60
2018-02-07T11:00:14.258Z,101334.75
2018-02-07T11:02:49.351Z,101322.34
2018-02-07T11:05:24.216Z,101326.26
2018-02-07T11:07:59.523Z,101319.09
2018-02-07T11:10:34.195Z,101323.28
2018-02-07T11:13:08.641Z,101315.17
2018-02-07T11:15:43.934Z,101309.98
2018-02-07T11:18:18.979Z,101318.72
2018-02-07T11:20:54.130Z,101321.87
2018-02-07T11:23:28.734Z,101327.70
2018-02-07T11:26:04.104Z,101327.09
2018-02-07T11:28:38.895Z,101326.95
2018-02-07T11:31:14.022Z,101334.54
2018-02-07T11:33:49.310Z,101337.03
2018-02-07T11:36:24.134Z,101339.08
2018-02-07T11:38:59.473Z,101336.38
2018-02-07T11:41:34.258Z,101331.25
2018-02-07T11:44:09.090Z,101337.11
2018-02-07T11:46:44.342Z,101337.88
2018-02-07T11:49:19.434Z,101338.92
2018-02-07T11:51:54.183Z,101334.64
2018-02-07T11:54:29.493Z,101325.19
2018-02-07T11:57:04.349Z,101327.27
2018-02-07T11:59:39.959Z,101326.67
2018-02-07T12:02:14.845Z,101322.55
2018-02-07T12:04:50.122Z,101322.86
2018-02-07T12:07:24.219Z,101326.91
2018-02-07T12:09:59.555Z,101328.71
2018-02-07T12:12:34.990Z,101331.59
2018-02-07T12:15:10.089Z,101328.95
2018-02-07T12:17:45.082Z,101322.58
2018-02-07T12:20:20.164Z,101321.20
2018-02-07T12:22:54.571Z,101321.11
2018-02-07T12:25:29.998Z,101325.11
2018-02-07T12:28:05.382Z,101325.28
2018-02-07T12:30:40.310Z,101317.61
2018-02-07T12:33:15.559Z,101320.53
2018-02-07T12:35:50.467Z,101318.95
2018-02-07T12:38:25.141Z,101320.45
2018-02-07T12:41:00.382Z,101324.72
2018-02-07T12:43:35.921Z,101329.73
2018-02-07T12:46:10.611Z,101329.41
2018-02-07T12:48:45.206Z,101326.08
2018-02-07T12:51:20.101Z,101334.22
2018-02-07T12:53:55.518Z,101332.63
2018-02-07T12:56:30.274Z,101328.92
2018-02-07T12:59:06.443Z,101333.91
2018-02-07T13:01:41.213Z,101331.25
2018-02-07T13:04:15.589Z,101330.77
2018-02-07T13:06:50.588Z,101334.09
2018-02-07T13:09:25.643Z,101325.92
2018-02-07T13:12:00.574Z,101335.09
2018-02-07T13:14:36.091Z,101327.77
2018-02-07T13:17:11.258Z,101325.86
2018-02-07T13:19:46.257Z,101327.59
2018-02-07T13:22:20.810Z,101326.94
2018-02-07T13:24:56.161Z,101318.16
2018-02-07T13:27:31.326Z,101320.30
2018-02-07T13:30:06.877Z,101316.87
2018-02-07T13:32:41.549Z,101313.50
2018-02-07T13:35:17.202Z,101315.09
2018-02-07T13:37:52.442Z,101317.47
2018-02-07T13:40:27.350Z,101319.16
2018-02-07T13:43:02.421Z,101317.98
2018-02-07T13:45:37.452Z,101314.06
2018-02-07T13:48:12.782Z,101316.34
2018-02-07T13:50:48.710Z,101310.17
2018-02-07T13:53:23.898Z,101310.14
2018-02-07T13:55:59.285Z,101313.58
2018-02-07T13:58:34.502Z,101318.28
2018-02-07T14:01:09.403Z,101313.86
2018-02-07T14:03:44.222Z,101317.12
2018-02-07T14:06:19.593Z,101321.04
2018-02-07T14:08:54.723Z,101314.69
2018-02-07T14:11:30.392Z,101315.31
2018-02-07T14:14:05.583Z,101310.17
2018-02-07T14:16:40.539Z,101310.78
2018-02-07T14:19:15.446Z,101308.45
2018-02-07T14:21:50.446Z,101314.84
2018-02-07T14:24:25.350Z,101306.85
2018-02-07T14:26:59.884Z,101311.27
2018-02-07T14:29:35.249Z,101312.65
2018-02-07T14:32:10.361Z,101314.83
2018-02-07T14:34:45.574Z,101317.27
2018-02-07T14:37:20.570Z,101311.99
2018-02-07T14:39:55.546Z,101313.20
2018-02-07T14:42:30.703Z,101316.24
2018-02-07T14:45:05.719Z,101311.14
2018-02-07T14:47:40.691Z,101313.52
2018-02-07T14:50:15.816Z,101316.56
2018-02-07T14:52:50.745Z,101312.20
2018-02-07T14:55:25.954Z,101314.50
2018-02-07T14:58:01.402Z,101319.86
2018-02-07T15:00:36.547Z,101311.44
2018-02-07T15:03:11.689Z,101320.80
2018-02-07T15:05:46.690Z,101319.22
2018-02-07T15:08:21.798Z,101322.30
2018-02-07T15:10:56.886Z,101325.47
2018-02-07T15:13:31.997Z,101322.09
2018-02-07T15:16:07.139Z,101330.71
2018-02-07T15:18:41.717Z,101332.35
2018-02-07T15:21:16.519Z,101326.44
2018-02-07T15:23:52.191Z,101332.93
2018-02-07T15:26:26.736Z,101335.68
2018-02-07T15:29:01.843Z,101332.53
2018-02-07T15:31:37.435Z,101339.05
2018-02-07T15:34:12.579Z,101341.07
2018-02-07T15:36:48.849Z,101341.63
2018-02-07T15:39:24.041Z,101350.14
2018-02-07T15:41:59.114Z,101344.80
2018-02-07T15:44:34.783Z,101343.05
2018-02-07T15:47:09.802Z,101339.48
2018-02-07T15:49:45.124Z,101329.33
2018-02-07T15:52:21.613Z,101336.45
2018-02-07T15:54:56.589Z,101337.23
2018-02-07T15:57:31.637Z,101341.36
2018-02-07T16:00:06.706Z,101331.84
2018-02-07T16:02:40.853Z,101336.27
2018-02-07T16:05:15.331Z,101340.33
2018-02-07T16:07:50.062Z,101345.19
2018-02-07T16:10:24.777Z,101346.04
2018-02-07T16:13:00.069Z,101352.67
2018-02-07T16:15:34.952Z,101353.19
2018-02-07T16:18:09.715Z,101352.34
2018-02-07T16:20:44.113Z,101350.62
2018-02-07T16:23:18.848Z,101344.30
2018-02-07T16:25:53.963Z,101350.88
2018-02-07T16:28:28.629Z,101352.55
2018-02-07T16:31:03.056Z,101350.23
2018-02-07T16:33:37.802Z,101351.31
2018-02-07T16:36:12.690Z,101355.23
2018-02-07T16:38:49.054Z,101349.09
2018-02-07T16:41:23.880Z,101352.97
2018-02-07T16:43:59.109Z,101361.24
2018-02-07T16:46:35.003Z,101359.34
2018-02-07T16:49:09.814Z,101366.28
2018-02-07T16:51:45.039Z,101363.02
2018-02-07T16:54:20.234Z,101362.81
2018-02-07T16:56:55.874Z,101370.63
2018-02-07T16:59:30.897Z,101377.28
2018-02-07T17:02:05.946Z,101376.22
2018-02-07T17:04:41.043Z,101379.63
2018-02-07T17:07:16.409Z,101380.20
2018-02-07T17:09:51.206Z,101371.70
2018-02-07T17:12:26.446Z,101383.33
2018-02-07T17:15:01.921Z,101395.05
2018-02-07T17:17:36.444Z,101401.82
2018-02-07T17:20:11.875Z,101395.43
2018-02-07T17:22:46.971Z,101394.80
2018-02-07T17:25:21.937Z,101401.06
2018-02-07T17:27:57.283Z,101406.98
2018-02-07T17:30:32.143Z,101402.20
2018-02-07T17:33:07.371Z,101409.59
2018-02-07T17:35:42.986Z,101415.72
2018-02-07T17:38:18.051Z,101411.69
2018-02-07T17:40:53.330Z,101418.86
2018-02-07T17:43:29.062Z,101414.96
2018-02-07T17:46:04.357Z,101424.84
2018-02-07T17:48:39.453Z,101430.80
2018-02-07T17:51:14.556Z,101437.18
2018-02-07T17:53:49.464Z,101442.61
2018-02-07T17:56:24.904Z,101431.27
2018-02-07T17:59:00.136Z,101417.42
2018-02-07T18:01:35.408Z,101434.98
2018-02-07T18:04:10.819Z,101430.11
2018-02-07T18:06:45.590Z,101432.91
2018-02-07T18:09:20.225Z,101436.12
2018-02-07T18:11:55.377Z,101440.66
2018-02-07T18:14:30.612Z,101449.20
2018-02-07T18:17:06.422Z,101449.30
2018-02-07T18:19:41.300Z,101450.74
2018-02-07T18:22:16.494Z,101456.94
2018-02-07T18:24:51.678Z,101464.56
2018-02-07T18:27:26.402Z,101470.39
2018-02-07T18:30:01.423Z,101473.10
2018-02-07T18:32:36.681Z,101473.16
2018-02-07T18:35:12.158Z,101474.69
2018-02-07T18:37:47.276Z,101478.80
2018-02-07T18:40:21.747Z,101486.91
2018-02-07T18:42:57.227Z,101489.67
2018-02-07T18:45:32.242Z,101493.34
2018-02-07T18:48:07.613Z,101496.64
2018-02-07T18:50:42.695Z,101492.66
2018-02-07T18:53:17.799Z,101492.71
2018-02-07T18:55:53.257Z,101491.90
2018-02-07T18:58:28.379Z,101492.73
2018-02-07T19:01:03.630Z,101493.69
2018-02-07T19:03:39.143Z,101497.35
2018-02-07T19:06:14.275Z,101491.66
2018-02-07T19:08:49.658Z,101490.87
2018-02-07T19:11:24.731Z,101484.38
2018-02-07T19:13:59.431Z,101491.06
2018-02-07T19:16:34.446Z,101490.20
2018-02-07T19:19:09.587Z,101497.39
2018-02-07T19:21:44.622Z,101498.03
2018-02-07T19:24:20.258Z,101516.05
2018-02-07T19:26:55.619Z,101507.66
2018-02-07T19:29:30.834Z,101507.72
2018-02-07T19:32:09.085Z,101514.89
2018-02-07T19:34:43.670Z,101510.17
2018-02-07T19:37:18.883Z,101509.84
2018-02-07T19:39:54.573Z,101511.30
2018-02-07T19:42:29.798Z,101510.58
2018-02-07T19:45:05.090Z,101510.74
2018-02-07T19:47:39.562Z,101513.44
2018-02-07T19:50:14.786Z,101512.58
2018-02-07T19:52:50.382Z,101517.92
2018-02-07T19:55:25.601Z,101519.31
2018-02-07T19:58:00.978Z,101521.16
2018-02-07T20:00:35.951Z,101521.25
2018-02-07T20:03:10.407Z,101523.10
2018-02-07T20:05:44.997Z,101526.75
2018-02-07T20:08:20.813Z,101530.36
2018-02-07T20:10:55.834Z,101536.61
2018-02-07T20:13:30.526Z,101531.77
2018-02-07T20:16:05.430Z,101540.66
2018-02-07T20:18:40.531Z,101538.94
2018-02-07T20:21:15.513Z,101533.22
2018-02-07T20:23:50.898Z,101535.89
2018-02-07T20:26:26.132Z,101536.44
2018-02-07T20:29:01.514Z,101539.14
2018-02-07T20:31:36.673Z,101534.39
2018-02-07T20:34:12.011Z,101539.78
2018-02-07T20:36:47.596Z,101526.80
2018-02-07T20:39:22.761Z,101535.54
2018-02-07T20:41:57.903Z,101535.59
2018-02-07T20:44:33.222Z,101533.49
2018-02-07T20:47:08.073Z,101533.63
2018-02-07T20:49:43.398Z,101535.91
2018-02-07T20:52:18.033Z,101534.69
2018-02-07T20:54:53.150Z,101541.74
2018-02-07T20:57:28.322Z,101543.11
2018-02-07T21:00:03.054Z,101541.42
2018-02-07T21:02:38.137Z,101530.14
2018-02-07T21:05:13.028Z,101538.41
2018-02-07T21:07:47.978Z,101544.17
2018-02-07T21:10:23.242Z,101546.79
2018-02-07T21:12:58.074Z,101542.84
2018-02-07T21:15:33.354Z,101545.02
2018-02-07T21:18:08.898Z,101547.28
2018-02-07T21:20:44.001Z,101545.99
2018-02-07T21:23:19.198Z,101550.48
2018-02-07T21:25:54.416Z,101552.70
2018-02-07T21:28:29.722Z,101555.84
2018-02-07T21:31:04.676Z,101551.95
2018-02-07T21:33:40.019Z,101548.02
2018-02-07T21:36:15.290Z,101558.63
2018-02-07T21:38:50.722Z,101557.36
2018-02-07T21:41:25.793Z,101556.14
2018-02-07T21:44:00.759Z,101569.89
2018-02-07T21:46:35.279Z,101554.09
2018-02-07T21:49:10.182Z,101555.42
2018-02-07T21:51:45.078Z,101559.47
2018-02-07T21:54:19.510Z,101550.30
2018-02-07T21:56:54.030Z,101560.47
2018-02-07T21:59:29.182Z,101561.42
2018-02-07T22:02:04.510Z,101556.69
2018-02-07T22:04:39.542Z,101553.72
2018-02-07T22:07:14.066Z,101559.01
2018-02-07T22:09:49.309Z,101563.03
2018-02-07T22:12:23.921Z,101564.90
2018-02-07T22:14:59.259Z,101565.47
2018-02-07T22:17:33.838Z,101561.99
2018-02-07T22:20:08.475Z,101561.19
2018-02-07T22:22:43.189Z,101570.96
2018-02-07T22:25:18.502Z,101560.02
2018-02-07T22:27:52.969Z,101562.72
2018-02-07T22:30:27.830Z,101554.92
2018-02-07T22:33:02.906Z,101548.02
2018-02-07T22:35:38.233Z,101544.14
2018-02-07T22:38:12.830Z,101556.09
2018-02-07T22:40:47.801Z,101552.63
2018-02-07T22:43:23.244Z,101552.30
2018-02-07T22:45:58.322Z,101577.45
2018-02-07T22:48:32.990Z,101566.08
2018-02-07T22:51:08.234Z,101569.61
2018-02-07T22:53:43.254Z,101572.73
2018-02-07T22:56:18.562Z,101574.55
2018-02-07T22:58:52.936Z,101574.14
2018-02-07T23:01:27.376Z,101569.83
2018-02-07T23:04:02.582Z,101571.70
2018-02-07T23:06:37.343Z,101575.28
2018-02-07T23:09:12.272Z,101578.43
2018-02-07T23:11:47.249Z,101572.37
2018-02-07T23:14:22.350Z,101573.30
2018-02-07T23:16:57.633Z,101574.64
2018-02-07T23:19:32.659Z,101582.19
2018-02-07T23:22:07.013Z,101581.38
2018-02-07T23:24:41.982Z,101584.48
2018-02-07T23:27:16.427Z,101583.28
2018-02-07T23:29:51.090Z,101589.44
2018-02-07T23:32:25.529Z,101588.16
2018-02-07T23:35:00.793Z,101594.34
2018-02-07T23:37:35.738Z,101594.80
2018-02-07T23:40:10.455Z,101597.91
2018-02-07T23:42:45.728Z,101597.48
2018-02-07T23:45:20.566Z,101595.75
2018-02-07T23:47:55.273Z,101592.28
2018-02-07T23:50:30.239Z,101601.08
2018-02-07T23:53:04.717Z,101594.94
2018-02-07T23:55:39.322Z,101600.23
2018-02-07T23:58:13.985Z,101601.59
